EIN851A LEBB-EICK
Flight info
| Callsign | EIN851A |
|---|---|
| Flight time | 1h 34m |
| Altitude | 38000 |
| Route | DOSUL DCT DELOG DCT RIXIX DCT TIQUH DCT LARLA DCT ARKIL DCT ORTOM ORTOM1R |
| Aircraft | A320/M-SDE3FGHIRWY/LB1 |
Departure
| Time | 2026-04-28 08:50 |
|---|---|
| Airport | Bilbao Airport (LEBB) |
Arrival
| Time | 2026-04-28 10:24 |
|---|---|
| Airport | Cork International Airport (EICK) |
| Time | Latitude | Longitude | Altitude | Speed | Heading |
|---|---|---|---|---|---|
| 2026-04-28 08:22 | 43.30409 | -2.90575 | 127 ft | 0 kts | 26° |
| 2026-04-28 08:42 | 43.30391 | -2.90588 | 122 ft | 4 kts | 30° |
| 2026-04-28 08:42 | 43.30369 | -2.90608 | 123 ft | 4 kts | 43° |
| 2026-04-28 08:43 | 43.30353 | -2.90636 | 123 ft | 4 kts | 81° |
| 2026-04-28 08:43 | 43.30354 | -2.90653 | 123 ft | 0 kts | 117° |
| 2026-04-28 08:45 | 43.30350 | -2.90645 | 122 ft | 3 kts | 117° |
| 2026-04-28 08:45 | 43.30329 | -2.90607 | 125 ft | 7 kts | 141° |
| 2026-04-28 08:45 | 43.30276 | -2.90554 | 127 ft | 10 kts | 146° |
| 2026-04-28 08:46 | 43.30217 | -2.90533 | 127 ft | 8 kts | 195° |
| 2026-04-28 08:46 | 43.30168 | -2.90563 | 125 ft | 7 kts | 204° |
| 2026-04-28 08:46 | 43.30120 | -2.90566 | 124 ft | 9 kts | 148° |
| 2026-04-28 08:46 | 43.30080 | -2.90470 | 126 ft | 15 kts | 116° |
| 2026-04-28 08:47 | 43.30029 | -2.90333 | 127 ft | 17 kts | 116° |
| 2026-04-28 08:47 | 43.29974 | -2.90180 | 126 ft | 19 kts | 116° |
| 2026-04-28 08:47 | 43.29912 | -2.90011 | 127 ft | 21 kts | 116° |
| 2026-04-28 08:47 | 43.29844 | -2.89825 | 128 ft | 23 kts | 117° |
| 2026-04-28 08:48 | 43.29780 | -2.89649 | 124 ft | 17 kts | 116° |
| 2026-04-28 08:48 | 43.29719 | -2.89597 | 127 ft | 10 kts | 188° |
| 2026-04-28 08:48 | 43.29674 | -2.89649 | 127 ft | 8 kts | 234° |
| 2026-04-28 08:48 | 43.29638 | -2.89724 | 124 ft | 12 kts | 246° |
| 2026-04-28 08:49 | 43.29663 | -2.89847 | 125 ft | 19 kts | 297° |
| 2026-04-28 08:49 | 43.29829 | -2.90295 | 127 ft | 89 kts | 297° |
| 2026-04-28 08:49 | 43.30204 | -2.91314 | 125 ft | 148 kts | 297° |
| 2026-04-28 08:49 | 43.30723 | -2.92664 | 526 ft | 161 kts | 298° |
| 2026-04-28 08:50 | 43.31245 | -2.94028 | 1201 ft | 162 kts | 298° |
| 2026-04-28 08:50 | 43.31787 | -2.95455 | 1632 ft | 181 kts | 298° |
| 2026-04-28 08:50 | 43.32460 | -2.97038 | 1971 ft | 204 kts | 311° |
| 2026-04-28 08:50 | 43.33524 | -2.98500 | 2333 ft | 228 kts | 316° |
| 2026-04-28 08:51 | 43.34736 | -3.00086 | 2797 ft | 252 kts | 317° |
| 2026-04-28 08:51 | 43.36041 | -3.01790 | 3556 ft | 263 kts | 317° |
| 2026-04-28 08:51 | 43.37376 | -3.03545 | 4484 ft | 269 kts | 316° |
| 2026-04-28 08:51 | 43.38738 | -3.05348 | 5339 ft | 274 kts | 316° |
| 2026-04-28 08:52 | 43.40198 | -3.07050 | 6233 ft | 277 kts | 330° |
| 2026-04-28 08:52 | 43.41981 | -3.07918 | 7086 ft | 279 kts | 351° |
| 2026-04-28 08:52 | 43.43918 | -3.08262 | 7956 ft | 282 kts | 351° |
| 2026-04-28 08:52 | 43.45830 | -3.08942 | 8775 ft | 285 kts | 336° |
| 2026-04-28 08:53 | 43.47564 | -3.10254 | 9610 ft | 287 kts | 322° |
| 2026-04-28 08:53 | 43.49176 | -3.11935 | 10356 ft | 295 kts | 321° |
| 2026-04-28 08:53 | 43.50877 | -3.13715 | 10620 ft | 319 kts | 321° |
| 2026-04-28 08:53 | 43.52690 | -3.15610 | 11080 ft | 332 kts | 321° |
| 2026-04-28 08:54 | 43.54547 | -3.17549 | 11781 ft | 337 kts | 321° |
| 2026-04-28 08:54 | 43.56429 | -3.19511 | 12544 ft | 341 kts | 322° |
| 2026-04-28 08:54 | 43.58333 | -3.21488 | 13293 ft | 344 kts | 322° |
| 2026-04-28 08:54 | 43.60256 | -3.23490 | 14030 ft | 347 kts | 322° |
| 2026-04-28 08:55 | 43.62191 | -3.25512 | 14687 ft | 351 kts | 321° |
| 2026-04-28 08:55 | 43.64144 | -3.27560 | 15336 ft | 354 kts | 321° |
| 2026-04-28 08:55 | 43.66120 | -3.29630 | 15966 ft | 358 kts | 321° |
| 2026-04-28 08:55 | 43.68113 | -3.31717 | 16584 ft | 362 kts | 321° |
| 2026-04-28 08:56 | 43.70142 | -3.33824 | 17213 ft | 366 kts | 322° |
| 2026-04-28 08:56 | 43.72193 | -3.35922 | 17834 ft | 369 kts | 322° |
| 2026-04-28 08:56 | 43.74276 | -3.38040 | 18430 ft | 373 kts | 322° |
| 2026-04-28 08:56 | 43.76350 | -3.40151 | 18958 ft | 376 kts | 322° |
| 2026-04-28 08:57 | 43.78493 | -3.42340 | 19530 ft | 379 kts | 322° |
| 2026-04-28 08:57 | 43.80616 | -3.44514 | 20094 ft | 381 kts | 322° |
| 2026-04-28 08:57 | 43.82747 | -3.46697 | 20695 ft | 383 kts | 322° |
| 2026-04-28 08:57 | 43.84867 | -3.48875 | 21260 ft | 385 kts | 322° |
| 2026-04-28 08:58 | 43.87027 | -3.51098 | 21824 ft | 388 kts | 321° |
| 2026-04-28 08:58 | 43.89230 | -3.53370 | 22394 ft | 391 kts | 321° |
| 2026-04-28 08:58 | 43.91387 | -3.55594 | 22933 ft | 394 kts | 321° |
| 2026-04-28 08:58 | 43.93595 | -3.57872 | 23468 ft | 396 kts | 321° |
| 2026-04-28 08:59 | 43.95816 | -3.60167 | 23925 ft | 399 kts | 321° |
| 2026-04-28 08:59 | 43.98045 | -3.62469 | 24346 ft | 401 kts | 321° |
| 2026-04-28 08:59 | 44.00294 | -3.64793 | 24773 ft | 404 kts | 321° |
| 2026-04-28 08:59 | 44.02558 | -3.67133 | 25179 ft | 406 kts | 320° |
| 2026-04-28 09:00 | 44.04830 | -3.69483 | 25573 ft | 408 kts | 320° |
| 2026-04-28 09:00 | 44.07111 | -3.71844 | 25950 ft | 411 kts | 320° |
| 2026-04-28 09:00 | 44.09417 | -3.74234 | 26335 ft | 413 kts | 320° |
| 2026-04-28 09:00 | 44.11724 | -3.76629 | 26701 ft | 416 kts | 320° |
| 2026-04-28 09:01 | 44.14048 | -3.79045 | 27070 ft | 418 kts | 320° |
| 2026-04-28 09:01 | 44.16384 | -3.81479 | 27448 ft | 420 kts | 320° |
| 2026-04-28 09:01 | 44.18733 | -3.83929 | 27820 ft | 422 kts | 319° |
| 2026-04-28 09:01 | 44.21090 | -3.86389 | 28182 ft | 424 kts | 319° |
| 2026-04-28 09:02 | 44.23453 | -3.88858 | 28518 ft | 427 kts | 319° |
| 2026-04-28 09:02 | 44.25831 | -3.91346 | 28856 ft | 429 kts | 319° |
| 2026-04-28 09:02 | 44.28226 | -3.93856 | 29180 ft | 431 kts | 319° |
| 2026-04-28 09:02 | 44.30636 | -3.96380 | 29502 ft | 434 kts | 320° |
| 2026-04-28 09:03 | 44.33212 | -3.98639 | 29814 ft | 441 kts | 328° |
| 2026-04-28 09:03 | 44.36018 | -4.00313 | 30119 ft | 448 kts | 336° |
| 2026-04-28 09:03 | 44.38966 | -4.01749 | 30390 ft | 449 kts | 336° |
| 2026-04-28 09:03 | 44.41919 | -4.03191 | 30656 ft | 450 kts | 336° |
| 2026-04-28 09:04 | 44.44886 | -4.04650 | 30897 ft | 452 kts | 336° |
| 2026-04-28 09:04 | 44.47847 | -4.06118 | 31123 ft | 453 kts | 336° |
| 2026-04-28 09:04 | 44.50827 | -4.07600 | 31362 ft | 455 kts | 336° |
| 2026-04-28 09:04 | 44.53812 | -4.09081 | 31638 ft | 455 kts | 336° |
| 2026-04-28 09:05 | 44.56794 | -4.10560 | 32017 ft | 453 kts | 336° |
| 2026-04-28 09:05 | 44.59754 | -4.12026 | 32385 ft | 451 kts | 336° |
| 2026-04-28 09:05 | 44.62709 | -4.13492 | 32722 ft | 450 kts | 335° |
| 2026-04-28 09:05 | 44.65663 | -4.14961 | 33038 ft | 449 kts | 335° |
| 2026-04-28 09:06 | 44.68606 | -4.16428 | 33361 ft | 448 kts | 335° |
| 2026-04-28 09:06 | 44.71544 | -4.17897 | 33675 ft | 448 kts | 335° |
| 2026-04-28 09:06 | 44.74478 | -4.19364 | 33993 ft | 447 kts | 335° |
| 2026-04-28 09:06 | 44.77409 | -4.20828 | 34267 ft | 447 kts | 335° |
| 2026-04-28 09:07 | 44.80340 | -4.22289 | 34527 ft | 447 kts | 336° |
| 2026-04-28 09:07 | 44.83266 | -4.23748 | 34780 ft | 446 kts | 335° |
| 2026-04-28 09:07 | 44.86194 | -4.25216 | 35024 ft | 446 kts | 336° |
| 2026-04-28 09:07 | 44.89117 | -4.26683 | 35263 ft | 446 kts | 336° |
| 2026-04-28 09:08 | 44.92034 | -4.28151 | 35507 ft | 445 kts | 336° |
| 2026-04-28 09:08 | 44.94947 | -4.29619 | 35767 ft | 444 kts | 336° |
| 2026-04-28 09:08 | 44.97854 | -4.31087 | 36016 ft | 443 kts | 336° |
| 2026-04-28 09:08 | 45.00760 | -4.32551 | 36232 ft | 443 kts | 336° |
| 2026-04-28 09:09 | 45.03660 | -4.34010 | 36439 ft | 443 kts | 336° |
| 2026-04-28 09:09 | 45.06562 | -4.35474 | 36640 ft | 442 kts | 336° |
| 2026-04-28 09:09 | 45.09465 | -4.36942 | 36842 ft | 442 kts | 336° |
| 2026-04-28 09:09 | 45.12356 | -4.38412 | 37052 ft | 442 kts | 336° |
| 2026-04-28 09:10 | 45.15252 | -4.39884 | 37243 ft | 442 kts | 336° |
| 2026-04-28 09:10 | 45.18144 | -4.41351 | 37431 ft | 441 kts | 336° |
| 2026-04-28 09:10 | 45.21035 | -4.42817 | 37610 ft | 441 kts | 336° |
| 2026-04-28 09:10 | 45.23926 | -4.44282 | 37784 ft | 441 kts | 336° |
| 2026-04-28 09:11 | 45.26814 | -4.45750 | 37978 ft | 441 kts | 336° |
| 2026-04-28 09:11 | 45.32594 | -4.48697 | 38080 ft | 441 kts | 336° |
| 2026-04-28 09:12 | 45.38313 | -4.51621 | 38093 ft | 440 kts | 336° |
| 2026-04-28 09:12 | 45.44107 | -4.54592 | 38093 ft | 439 kts | 336° |
| 2026-04-28 09:13 | 45.49850 | -4.57545 | 38110 ft | 439 kts | 336° |
| 2026-04-28 09:13 | 45.55595 | -4.60493 | 38099 ft | 438 kts | 336° |
| 2026-04-28 09:14 | 45.61305 | -4.63428 | 38105 ft | 439 kts | 336° |
| 2026-04-28 09:14 | 45.67045 | -4.66399 | 38108 ft | 438 kts | 336° |
| 2026-04-28 09:15 | 45.72778 | -4.69364 | 38123 ft | 438 kts | 336° |
| 2026-04-28 09:15 | 45.78512 | -4.72343 | 38122 ft | 438 kts | 336° |
| 2026-04-28 09:16 | 45.84239 | -4.75325 | 38122 ft | 438 kts | 336° |
| 2026-04-28 09:16 | 45.89970 | -4.78308 | 38139 ft | 437 kts | 337° |
| 2026-04-28 09:17 | 45.95687 | -4.81294 | 38140 ft | 437 kts | 337° |
| 2026-04-28 09:17 | 46.01391 | -4.84284 | 38138 ft | 437 kts | 337° |
| 2026-04-28 09:18 | 46.07096 | -4.87274 | 38144 ft | 436 kts | 337° |
| 2026-04-28 09:18 | 46.12799 | -4.90273 | 38142 ft | 436 kts | 337° |
| 2026-04-28 09:19 | 46.18493 | -4.93278 | 38148 ft | 435 kts | 337° |
| 2026-04-28 09:19 | 46.24176 | -4.96277 | 38149 ft | 435 kts | 337° |
| 2026-04-28 09:20 | 46.29862 | -4.99278 | 38162 ft | 434 kts | 337° |
| 2026-04-28 09:20 | 46.35533 | -5.02286 | 38156 ft | 434 kts | 337° |
| 2026-04-28 09:21 | 46.41164 | -5.05278 | 38157 ft | 433 kts | 337° |
| 2026-04-28 09:21 | 46.46819 | -5.08300 | 38172 ft | 433 kts | 337° |
| 2026-04-28 09:22 | 46.52451 | -5.11384 | 38170 ft | 432 kts | 336° |
| 2026-04-28 09:22 | 46.58047 | -5.14540 | 38166 ft | 431 kts | 336° |
| 2026-04-28 09:23 | 46.63638 | -5.17704 | 38169 ft | 431 kts | 336° |
| 2026-04-28 09:23 | 46.69229 | -5.20869 | 38167 ft | 431 kts | 336° |
| 2026-04-28 09:24 | 46.74820 | -5.24025 | 38168 ft | 431 kts | 336° |
| 2026-04-28 09:24 | 46.80416 | -5.27180 | 38168 ft | 431 kts | 336° |
| 2026-04-28 09:25 | 46.86006 | -5.30345 | 38182 ft | 431 kts | 336° |
| 2026-04-28 09:25 | 46.91589 | -5.33522 | 38174 ft | 430 kts | 336° |
| 2026-04-28 09:26 | 46.97166 | -5.36697 | 38181 ft | 430 kts | 336° |
| 2026-04-28 09:26 | 47.01803 | -5.39340 | 38180 ft | 430 kts | 336° |
| 2026-04-28 09:27 | 47.11057 | -5.44633 | 38190 ft | 429 kts | 336° |
| 2026-04-28 09:27 | 47.15709 | -5.47302 | 38185 ft | 429 kts | 336° |
| 2026-04-28 09:28 | 47.21273 | -5.50492 | 38184 ft | 429 kts | 336° |
| 2026-04-28 09:28 | 47.26829 | -5.53695 | 38204 ft | 429 kts | 337° |
| 2026-04-28 09:29 | 47.32373 | -5.56901 | 38198 ft | 428 kts | 337° |
| 2026-04-28 09:29 | 47.37925 | -5.60113 | 38201 ft | 428 kts | 337° |
| 2026-04-28 09:30 | 47.43432 | -5.63312 | 38199 ft | 428 kts | 337° |
| 2026-04-28 09:30 | 47.48964 | -5.66534 | 38212 ft | 427 kts | 338° |
| 2026-04-28 09:31 | 47.54489 | -5.69754 | 38222 ft | 426 kts | 338° |
| 2026-04-28 09:31 | 47.60002 | -5.72969 | 38209 ft | 426 kts | 338° |
| 2026-04-28 09:32 | 47.65506 | -5.76191 | 38209 ft | 425 kts | 338° |
| 2026-04-28 09:32 | 47.71003 | -5.79421 | 38219 ft | 424 kts | 338° |
| 2026-04-28 09:33 | 47.76481 | -5.82639 | 38219 ft | 423 kts | 338° |
| 2026-04-28 09:33 | 47.81939 | -5.85850 | 38220 ft | 422 kts | 338° |
| 2026-04-28 09:34 | 47.87390 | -5.89075 | 38218 ft | 421 kts | 338° |
| 2026-04-28 09:34 | 47.92834 | -5.92309 | 38215 ft | 421 kts | 338° |
| 2026-04-28 09:35 | 47.98275 | -5.95539 | 38207 ft | 420 kts | 339° |
| 2026-04-28 09:35 | 48.03705 | -5.98764 | 38219 ft | 420 kts | 339° |
| 2026-04-28 09:36 | 48.09130 | -6.01995 | 38232 ft | 420 kts | 339° |
| 2026-04-28 09:36 | 48.14558 | -6.05237 | 38233 ft | 420 kts | 339° |
| 2026-04-28 09:37 | 48.19985 | -6.08479 | 38233 ft | 420 kts | 339° |
| 2026-04-28 09:37 | 48.25388 | -6.11730 | 38246 ft | 420 kts | 339° |
| 2026-04-28 09:38 | 48.30812 | -6.14993 | 38233 ft | 420 kts | 339° |
| 2026-04-28 09:38 | 48.36246 | -6.18262 | 38240 ft | 421 kts | 339° |
| 2026-04-28 09:39 | 48.41660 | -6.21636 | 38245 ft | 422 kts | 334° |
| 2026-04-28 09:39 | 48.46705 | -6.26191 | 38249 ft | 423 kts | 330° |
| 2026-04-28 09:40 | 48.51730 | -6.30834 | 38252 ft | 424 kts | 330° |
| 2026-04-28 09:40 | 48.56752 | -6.35472 | 38261 ft | 424 kts | 330° |
| 2026-04-28 09:41 | 48.61779 | -6.40132 | 38263 ft | 424 kts | 330° |
| 2026-04-28 09:41 | 48.66807 | -6.44809 | 38270 ft | 424 kts | 330° |
| 2026-04-28 09:42 | 48.71822 | -6.49489 | 38266 ft | 424 kts | 330° |
| 2026-04-28 09:42 | 48.76812 | -6.54167 | 38274 ft | 424 kts | 330° |
| 2026-04-28 09:43 | 48.81829 | -6.58869 | 38266 ft | 424 kts | 331° |
| 2026-04-28 09:43 | 48.86842 | -6.63574 | 38272 ft | 423 kts | 330° |
| 2026-04-28 09:44 | 48.91849 | -6.68285 | 38277 ft | 423 kts | 331° |
| 2026-04-28 09:44 | 48.96850 | -6.73005 | 38281 ft | 423 kts | 331° |
| 2026-04-28 09:45 | 49.01852 | -6.77740 | 38286 ft | 423 kts | 331° |
| 2026-04-28 09:45 | 49.06841 | -6.82471 | 38295 ft | 422 kts | 331° |
| 2026-04-28 09:46 | 49.11835 | -6.87211 | 38280 ft | 422 kts | 332° |
| 2026-04-28 09:46 | 49.16820 | -6.91948 | 38292 ft | 422 kts | 332° |
| 2026-04-28 09:47 | 49.21761 | -6.96668 | 38292 ft | 422 kts | 332° |
| 2026-04-28 09:47 | 49.26734 | -7.01433 | 38297 ft | 422 kts | 332° |
| 2026-04-28 09:48 | 49.31707 | -7.06208 | 38305 ft | 422 kts | 332° |
| 2026-04-28 09:48 | 49.36676 | -7.10988 | 38306 ft | 421 kts | 333° |
| 2026-04-28 09:49 | 49.41916 | -7.14833 | 38310 ft | 417 kts | 340° |
| 2026-04-28 09:49 | 49.47229 | -7.18381 | 38293 ft | 416 kts | 340° |
| 2026-04-28 09:50 | 49.52541 | -7.21944 | 38307 ft | 416 kts | 341° |
| 2026-04-28 09:50 | 49.57837 | -7.25503 | 38319 ft | 415 kts | 341° |
| 2026-04-28 09:51 | 49.63129 | -7.29064 | 38321 ft | 414 kts | 341° |
| 2026-04-28 09:51 | 49.68409 | -7.32636 | 38323 ft | 414 kts | 341° |
| 2026-04-28 09:52 | 49.73654 | -7.36185 | 38319 ft | 414 kts | 341° |
| 2026-04-28 09:52 | 49.78926 | -7.39766 | 38330 ft | 413 kts | 341° |
| 2026-04-28 09:53 | 49.84190 | -7.43351 | 38337 ft | 413 kts | 341° |
| 2026-04-28 09:53 | 49.89438 | -7.46937 | 38336 ft | 412 kts | 341° |
| 2026-04-28 09:54 | 49.94694 | -7.50526 | 38341 ft | 412 kts | 341° |
| 2026-04-28 09:54 | 49.99943 | -7.54123 | 38345 ft | 412 kts | 341° |
| 2026-04-28 09:55 | 50.05151 | -7.57704 | 38347 ft | 411 kts | 341° |
| 2026-04-28 09:55 | 50.10376 | -7.61304 | 38351 ft | 411 kts | 341° |
| 2026-04-28 09:56 | 50.15625 | -7.64935 | 38351 ft | 410 kts | 341° |
| 2026-04-28 09:56 | 50.20809 | -7.68517 | 38349 ft | 410 kts | 342° |
| 2026-04-28 09:57 | 50.26050 | -7.72144 | 38357 ft | 409 kts | 341° |
| 2026-04-28 09:57 | 50.31212 | -7.75731 | 38357 ft | 409 kts | 341° |
| 2026-04-28 09:58 | 50.36409 | -7.79356 | 38362 ft | 408 kts | 341° |
| 2026-04-28 09:58 | 50.41605 | -7.82985 | 38352 ft | 408 kts | 341° |
| 2026-04-28 09:59 | 50.46786 | -7.86612 | 38364 ft | 407 kts | 341° |
| 2026-04-28 09:59 | 50.51962 | -7.90243 | 38370 ft | 407 kts | 341° |
| 2026-04-28 10:00 | 50.57130 | -7.93885 | 38356 ft | 407 kts | 341° |
| 2026-04-28 10:00 | 50.59709 | -7.95705 | 38183 ft | 406 kts | 341° |
| 2026-04-28 10:00 | 50.62280 | -7.97522 | 37891 ft | 405 kts | 342° |
| 2026-04-28 10:01 | 50.64848 | -7.99330 | 37617 ft | 404 kts | 342° |
| 2026-04-28 10:01 | 50.67472 | -8.00812 | 37355 ft | 399 kts | 348° |
| 2026-04-28 10:01 | 50.70134 | -8.02085 | 37081 ft | 400 kts | 348° |
| 2026-04-28 10:01 | 50.72796 | -8.03364 | 36817 ft | 400 kts | 348° |
| 2026-04-28 10:02 | 50.75462 | -8.04652 | 36556 ft | 401 kts | 348° |
| 2026-04-28 10:02 | 50.78135 | -8.05947 | 35893 ft | 403 kts | 348° |
| 2026-04-28 10:02 | 50.80828 | -8.07252 | 35054 ft | 406 kts | 348° |
| 2026-04-28 10:02 | 50.83532 | -8.08565 | 34245 ft | 409 kts | 348° |
| 2026-04-28 10:03 | 50.86263 | -8.09888 | 33223 ft | 412 kts | 348° |
| 2026-04-28 10:03 | 50.89016 | -8.11221 | 32250 ft | 415 kts | 348° |
| 2026-04-28 10:03 | 50.91748 | -8.12550 | 31304 ft | 417 kts | 348° |
| 2026-04-28 10:03 | 50.94564 | -8.13925 | 30217 ft | 420 kts | 348° |
| 2026-04-28 10:04 | 50.97374 | -8.15296 | 28978 ft | 424 kts | 348° |
| 2026-04-28 10:04 | 51.00170 | -8.16669 | 28344 ft | 416 kts | 348° |
| 2026-04-28 10:04 | 51.02876 | -8.18011 | 27697 ft | 408 kts | 348° |
| 2026-04-28 10:04 | 51.05568 | -8.19342 | 27011 ft | 403 kts | 348° |
| 2026-04-28 10:05 | 51.08235 | -8.20653 | 26372 ft | 399 kts | 348° |
| 2026-04-28 10:05 | 51.10875 | -8.21944 | 25726 ft | 395 kts | 348° |
| 2026-04-28 10:05 | 51.13487 | -8.23219 | 25090 ft | 392 kts | 348° |
| 2026-04-28 10:05 | 51.16082 | -8.24487 | 24459 ft | 389 kts | 348° |
| 2026-04-28 10:06 | 51.18661 | -8.25756 | 23812 ft | 386 kts | 348° |
| 2026-04-28 10:06 | 51.21221 | -8.27025 | 23148 ft | 383 kts | 348° |
| 2026-04-28 10:06 | 51.23750 | -8.28287 | 22584 ft | 379 kts | 347° |
| 2026-04-28 10:06 | 51.26171 | -8.29951 | 22020 ft | 382 kts | 337° |
| 2026-04-28 10:07 | 51.28383 | -8.32330 | 21464 ft | 386 kts | 326° |
| 2026-04-28 10:07 | 51.30316 | -8.35325 | 20928 ft | 388 kts | 319° |
| 2026-04-28 10:07 | 51.32171 | -8.38452 | 20402 ft | 386 kts | 319° |
| 2026-04-28 10:07 | 51.34011 | -8.41550 | 19885 ft | 383 kts | 319° |
| 2026-04-28 10:08 | 51.35841 | -8.44628 | 19377 ft | 381 kts | 319° |
| 2026-04-28 10:08 | 51.37659 | -8.47689 | 18861 ft | 379 kts | 319° |
| 2026-04-28 10:08 | 51.39467 | -8.50734 | 18296 ft | 377 kts | 319° |
| 2026-04-28 10:08 | 51.41341 | -8.53629 | 17776 ft | 369 kts | 327° |
| 2026-04-28 10:09 | 51.43443 | -8.55871 | 17285 ft | 358 kts | 337° |
| 2026-04-28 10:09 | 51.45705 | -8.57414 | 16788 ft | 349 kts | 347° |
| 2026-04-28 10:09 | 51.48011 | -8.58390 | 16314 ft | 345 kts | 350° |
| 2026-04-28 10:09 | 51.50327 | -8.59328 | 15809 ft | 342 kts | 349° |
| 2026-04-28 10:10 | 51.52625 | -8.60264 | 15319 ft | 340 kts | 349° |
| 2026-04-28 10:10 | 51.54914 | -8.61203 | 14839 ft | 339 kts | 349° |
| 2026-04-28 10:10 | 51.57194 | -8.62143 | 14335 ft | 338 kts | 349° |
| 2026-04-28 10:10 | 51.59464 | -8.63079 | 13799 ft | 336 kts | 349° |
| 2026-04-28 10:11 | 51.61725 | -8.64011 | 13285 ft | 334 kts | 349° |
| 2026-04-28 10:11 | 51.63961 | -8.64935 | 12773 ft | 331 kts | 349° |
| 2026-04-28 10:11 | 51.66189 | -8.65850 | 12264 ft | 329 kts | 349° |
| 2026-04-28 10:11 | 51.68396 | -8.66755 | 11751 ft | 327 kts | 349° |
| 2026-04-28 10:12 | 51.70592 | -8.67658 | 11246 ft | 325 kts | 349° |
| 2026-04-28 10:12 | 51.72754 | -8.68551 | 11011 ft | 314 kts | 349° |
| 2026-04-28 10:12 | 51.74820 | -8.69412 | 10888 ft | 301 kts | 349° |
| 2026-04-28 10:12 | 51.76807 | -8.70241 | 10762 ft | 289 kts | 349° |
| 2026-04-28 10:13 | 51.78720 | -8.71032 | 10557 ft | 281 kts | 350° |
| 2026-04-28 10:13 | 51.80603 | -8.71748 | 10332 ft | 276 kts | 352° |
| 2026-04-28 10:13 | 51.82478 | -8.72410 | 10203 ft | 274 kts | 352° |
| 2026-04-28 10:13 | 51.84302 | -8.73045 | 10067 ft | 263 kts | 352° |
| 2026-04-28 10:14 | 51.85471 | -8.73450 | 9968 ft | 257 kts | 352° |
| 2026-04-28 10:14 | 51.87206 | -8.74051 | 9667 ft | 253 kts | 352° |
| 2026-04-28 10:14 | 51.88926 | -8.74653 | 9324 ft | 252 kts | 352° |
| 2026-04-28 10:14 | 51.90629 | -8.75252 | 8973 ft | 250 kts | 352° |
| 2026-04-28 10:15 | 51.92325 | -8.75850 | 8635 ft | 248 kts | 352° |
| 2026-04-28 10:15 | 51.94006 | -8.76445 | 8285 ft | 246 kts | 352° |
| 2026-04-28 10:15 | 51.95671 | -8.77039 | 7942 ft | 244 kts | 352° |
| 2026-04-28 10:15 | 51.97326 | -8.77630 | 7601 ft | 243 kts | 352° |
| 2026-04-28 10:16 | 51.98972 | -8.78219 | 7263 ft | 241 kts | 352° |
| 2026-04-28 10:16 | 52.00604 | -8.78773 | 6974 ft | 236 kts | 358° |
| 2026-04-28 10:16 | 52.02147 | -8.78434 | 6784 ft | 219 kts | 29° |
| 2026-04-28 10:16 | 52.03283 | -8.76934 | 6592 ft | 207 kts | 53° |
| 2026-04-28 10:17 | 52.04150 | -8.75109 | 6399 ft | 201 kts | 54° |
| 2026-04-28 10:17 | 52.04992 | -8.73326 | 6206 ft | 195 kts | 54° |
| 2026-04-28 10:17 | 52.05805 | -8.71599 | 6055 ft | 191 kts | 54° |
| 2026-04-28 10:17 | 52.06603 | -8.69904 | 5883 ft | 186 kts | 54° |
| 2026-04-28 10:18 | 52.07383 | -8.68248 | 5692 ft | 183 kts | 54° |
| 2026-04-28 10:18 | 52.07973 | -8.66411 | 5306 ft | 187 kts | 80° |
| 2026-04-28 10:18 | 52.07852 | -8.64332 | 5045 ft | 188 kts | 112° |
| 2026-04-28 10:18 | 52.06989 | -8.62761 | 4837 ft | 191 kts | 148° |
| 2026-04-28 10:19 | 52.05773 | -8.61977 | 4707 ft | 186 kts | 155° |
| 2026-04-28 10:19 | 52.04577 | -8.61273 | 4561 ft | 180 kts | 155° |
| 2026-04-28 10:19 | 52.03405 | -8.60576 | 4341 ft | 177 kts | 155° |
| 2026-04-28 10:19 | 52.02257 | -8.59891 | 4122 ft | 175 kts | 154° |
| 2026-04-28 10:20 | 52.01113 | -8.59208 | 3891 ft | 172 kts | 154° |
| 2026-04-28 10:20 | 51.99994 | -8.58540 | 3661 ft | 172 kts | 155° |
| 2026-04-28 10:20 | 51.98873 | -8.57872 | 3436 ft | 171 kts | 155° |
| 2026-04-28 10:20 | 51.97763 | -8.57211 | 3242 ft | 168 kts | 155° |
| 2026-04-28 10:21 | 51.96688 | -8.56571 | 2989 ft | 165 kts | 154° |
| 2026-04-28 10:21 | 51.95620 | -8.55935 | 2751 ft | 162 kts | 153° |
| 2026-04-28 10:21 | 51.94550 | -8.55298 | 2522 ft | 161 kts | 154° |
| 2026-04-28 10:21 | 51.93515 | -8.54682 | 2310 ft | 161 kts | 155° |
| 2026-04-28 10:22 | 51.92462 | -8.54056 | 2095 ft | 161 kts | 154° |
| 2026-04-28 10:22 | 51.91439 | -8.53451 | 1856 ft | 150 kts | 153° |
| 2026-04-28 10:22 | 51.90478 | -8.52881 | 1668 ft | 144 kts | 154° |
| 2026-04-28 10:22 | 51.89555 | -8.52333 | 1467 ft | 140 kts | 154° |
| 2026-04-28 10:23 | 51.88634 | -8.51786 | 1307 ft | 141 kts | 153° |
| 2026-04-28 10:23 | 51.87707 | -8.51235 | 1088 ft | 142 kts | 154° |
| 2026-04-28 10:23 | 51.86778 | -8.50677 | 906 ft | 144 kts | 156° |
| 2026-04-28 10:23 | 51.85831 | -8.50124 | 710 ft | 144 kts | 156° |
| 2026-04-28 10:24 | 51.84892 | -8.49564 | 526 ft | 143 kts | 155° |
| 2026-04-28 10:24 | 51.84078 | -8.49080 | 504 ft | 101 kts | 161° |
| 2026-04-28 10:24 | 51.83579 | -8.48787 | 504 ft | 52 kts | 159° |
| 2026-04-28 10:24 | 51.83359 | -8.48655 | 504 ft | 31 kts | 160° |
| 2026-04-28 10:25 | 51.83275 | -8.48559 | 504 ft | 7 kts | 178° |
| 2026-04-28 10:25 | 51.83292 | -8.48614 | 504 ft | 17 kts | 324° |
| 2026-04-28 10:25 | 51.83442 | -8.48704 | 504 ft | 25 kts | 340° |
| 2026-04-28 10:25 | 51.83611 | -8.48803 | 504 ft | 27 kts | 340° |
| 2026-04-28 10:26 | 51.83792 | -8.48908 | 504 ft | 29 kts | 340° |
| 2026-04-28 10:26 | 51.83985 | -8.49023 | 504 ft | 30 kts | 338° |
| 2026-04-28 10:26 | 51.84181 | -8.49142 | 504 ft | 27 kts | 340° |
| 2026-04-28 10:26 | 51.84300 | -8.49157 | 504 ft | 15 kts | 50° |
| 2026-04-28 10:27 | 51.84353 | -8.49003 | 504 ft | 16 kts | 51° |
| 2026-04-28 10:27 | 51.84459 | -8.49023 | 504 ft | 17 kts | 340° |
| 2026-04-28 10:27 | 51.84568 | -8.49087 | 504 ft | 17 kts | 340° |
| 2026-04-28 10:27 | 51.84676 | -8.49152 | 504 ft | 17 kts | 340° |
| 2026-04-28 10:28 | 51.84789 | -8.49209 | 504 ft | 17 kts | 349° |
| 2026-04-28 10:28 | 51.84883 | -8.49244 | 504 ft | 8 kts | 352° |
| 2026-04-28 10:28 | 51.84917 | -8.49194 | 504 ft | 8 kts | 68° |
| 2026-04-28 10:29 | 51.84934 | -8.49119 | 504 ft | 0 kts | 70° |